Orbital elements of FENGYUN 1C DEB
| Launched | 9 May 1999 |
| Flight ended | – |
| Launch site | Taiyuan Space Center, PRC |
| Owner | People's Republic of China |
| NORAD ID | 29827 |
| Date fetched |
Epoch osculation |
Inc. [°] |
Ecc. | RA asc node [hr] |
Arg Peri. [°] |
Mean anom [°] |
Mean motion [rev/day] |
Abs. mag |
| Date fetched |
Epoch osculation |
Inc. [°] |
Ecc. | RA asc node [hr] |
Arg Peri. [°] |
Mean anom [°] |
Mean motion [rev/day] |
Abs. mag |
| 2026 May 07 17:58 | 2026 May 05 11:22:31 | 98.6134 | 0.00242 | 7.8795 | 263.7226 | 248.0286 | 14.21912 | – |
| 2026 May 06 17:57 | 2026 May 05 11:22:31 | 98.6134 | 0.00242 | 7.8795 | 263.7226 | 248.0286 | 14.21912 | – |
| 2026 May 05 17:57 | 2026 May 05 11:22:31 | 98.6134 | 0.00242 | 7.8795 | 263.7226 | 248.0286 | 14.21912 | – |
| 2026 May 04 17:57 | 2026 Apr 30 11:28:07 | 98.6134 | 0.00242 | 7.5541 | 279.0162 | 248.0286 | 14.21912 | – |
| 2026 May 03 17:57 | 2026 Apr 30 11:28:07 | 98.6134 | 0.00242 | 7.5541 | 279.0162 | 248.0286 | 14.21912 | – |
| 2026 May 02 17:57 | 2026 Apr 30 11:28:07 | 98.6134 | 0.00242 | 7.5541 | 279.0162 | 248.0286 | 14.21912 | – |
| 2026 May 01 17:56 | 2026 Apr 30 11:28:07 | 98.6134 | 0.00242 | 7.5541 | 279.0162 | 248.0286 | 14.21912 | – |
| 2026 Apr 30 17:56 | 2026 Apr 30 11:28:07 | 98.6134 | 0.00242 | 7.5541 | 279.0162 | 248.0286 | 14.21912 | – |
| 2026 Apr 29 17:57 | 2026 Apr 24 11:47:23 | 98.6134 | 0.00243 | 7.1644 | 297.1571 | 248.0286 | 14.21912 | – |
| 2026 Apr 28 17:56 | 2026 Apr 24 11:47:23 | 98.6134 | 0.00243 | 7.1644 | 297.1571 | 248.0286 | 14.21912 | – |
| 2026 Apr 27 17:58 | 2026 Apr 24 11:47:23 | 98.6134 | 0.00243 | 7.1644 | 297.1571 | 248.0286 | 14.21912 | – |
| 2026 Apr 26 17:58 | 2026 Apr 24 11:47:23 | 98.6134 | 0.00243 | 7.1644 | 297.1571 | 248.0286 | 14.21912 | – |
| 2026 Apr 25 17:58 | 2026 Apr 24 11:47:23 | 98.6134 | 0.00243 | 7.1644 | 297.1571 | 248.0286 | 14.21912 | – |
| 2026 Apr 24 17:59 | 2026 Apr 24 11:47:23 | 98.6134 | 0.00243 | 7.1644 | 297.1571 | 248.0286 | 14.21912 | – |
| 2026 Apr 23 17:57 | 2026 Apr 19 06:18:19 | 98.6135 | 0.00246 | 6.8239 | 312.9718 | 248.0286 | 14.21912 | – |
| 2026 Apr 22 17:57 | 2026 Apr 19 06:18:19 | 98.6135 | 0.00246 | 6.8239 | 312.9718 | 248.0286 | 14.21912 | – |
| 2026 Apr 21 17:57 | 2026 Apr 19 06:18:19 | 98.6135 | 0.00246 | 6.8239 | 312.9718 | 248.0286 | 14.21912 | – |
| 2026 Apr 20 17:57 | 2026 Apr 19 06:18:19 | 98.6135 | 0.00246 | 6.8239 | 312.9718 | 248.0286 | 14.21912 | – |
| 2026 Apr 19 17:58 | 2026 Apr 19 06:18:19 | 98.6135 | 0.00246 | 6.8239 | 312.9718 | 248.0286 | 14.21912 | – |
| 2026 Apr 18 17:56 | 2026 Apr 12 18:00:26 | 98.6133 | 0.00250 | 6.3999 | 332.4022 | 248.0286 | 14.21912 | – |
| 2026 Apr 16 17:57 | 2026 Apr 12 18:00:26 | 98.6133 | 0.00250 | 6.3999 | 332.4022 | 248.0286 | 14.21912 | – |
| 2026 Apr 14 17:57 | 2026 Apr 12 18:00:26 | 98.6133 | 0.00250 | 6.3999 | 332.4022 | 248.0286 | 14.21912 | – |
| 2026 Apr 13 17:57 | 2026 Apr 12 18:00:26 | 98.6133 | 0.00250 | 6.3999 | 332.4022 | 248.0286 | 14.21912 | – |
| 2026 Apr 12 17:57 | 2026 Apr 08 10:52:03 | 98.6130 | 0.00252 | 6.1202 | 345.0172 | 248.0286 | 14.21912 | – |
| 2026 Apr 11 17:57 | 2026 Apr 08 10:52:03 | 98.6130 | 0.00252 | 6.1202 | 345.0172 | 248.0286 | 14.21912 | – |
| 2026 Apr 10 17:58 | 2026 Apr 08 10:52:03 | 98.6130 | 0.00252 | 6.1202 | 345.0172 | 248.0286 | 14.21912 | – |